LVBXJ SACD-SACD
Flight info
| Callsign | LVBXJ |
|---|---|
| Flight time | 0h 41m |
| Altitude | 3000 |
| Route | SACD LOCAL VFR |
| Aircraft | C172/L-SDG/S |
Departure
| Time | 2026-05-06 22:02 |
|---|---|
| Airport | Coronel Olmedo Airport (SACD) |
Arrival
| Time | 2026-05-06 22:43 |
|---|---|
| Airport | Coronel Olmedo Airport (SACD) |
| Time | Latitude | Longitude | Altitude | Speed | Heading |
|---|---|---|---|---|---|
| 2026-05-06 22:00 | -31.49209 | -64.14588 | 1422 ft | 0 kts | 41° |
| 2026-05-06 22:00 | -31.49201 | -64.14579 | 1422 ft | 11 kts | 41° |
| 2026-05-06 22:01 | -31.49031 | -64.14414 | 1421 ft | 52 kts | 40° |
| 2026-05-06 22:01 | -31.48688 | -64.14080 | 1465 ft | 72 kts | 37° |
| 2026-05-06 22:01 | -31.48290 | -64.13691 | 1599 ft | 78 kts | 43° |
| 2026-05-06 22:01 | -31.47899 | -64.13246 | 1755 ft | 80 kts | 43° |
| 2026-05-06 22:02 | -31.47494 | -64.12809 | 1996 ft | 76 kts | 41° |
| 2026-05-06 22:02 | -31.47133 | -64.12390 | 2167 ft | 71 kts | 33° |
| 2026-05-06 22:02 | -31.46734 | -64.12057 | 2356 ft | 71 kts | 32° |
| 2026-05-06 22:02 | -31.46344 | -64.11704 | 2557 ft | 70 kts | 32° |
| 2026-05-06 22:03 | -31.45966 | -64.11342 | 2676 ft | 70 kts | 32° |
| 2026-05-06 22:03 | -31.45590 | -64.10974 | 2801 ft | 71 kts | 33° |
| 2026-05-06 22:03 | -31.45215 | -64.10605 | 2916 ft | 70 kts | 32° |
| 2026-05-06 22:03 | -31.44844 | -64.10245 | 2983 ft | 70 kts | 33° |
| 2026-05-06 22:04 | -31.44477 | -64.09883 | 2993 ft | 71 kts | 40° |
| 2026-05-06 22:04 | -31.44139 | -64.09403 | 3012 ft | 81 kts | 42° |
| 2026-05-06 22:04 | -31.43766 | -64.08866 | 3011 ft | 90 kts | 43° |
| 2026-05-06 22:04 | -31.43639 | -64.08110 | 3011 ft | 108 kts | 94° |
| 2026-05-06 22:05 | -31.43999 | -64.07289 | 3012 ft | 116 kts | 110° |
| 2026-05-06 22:05 | -31.44385 | -64.06436 | 3002 ft | 119 kts | 109° |
| 2026-05-06 22:05 | -31.44708 | -64.05552 | 3004 ft | 117 kts | 103° |
| 2026-05-06 22:05 | -31.45089 | -64.04724 | 3009 ft | 115 kts | 118° |
| 2026-05-06 22:06 | -31.45534 | -64.03942 | 2999 ft | 118 kts | 118° |
| 2026-05-06 22:06 | -31.46065 | -64.03186 | 3007 ft | 122 kts | 127° |
| 2026-05-06 22:06 | -31.46623 | -64.02433 | 2998 ft | 121 kts | 123° |
| 2026-05-06 22:06 | -31.47143 | -64.01664 | 3003 ft | 120 kts | 122° |
| 2026-05-06 22:07 | -31.47688 | -64.00936 | 2990 ft | 119 kts | 129° |
| 2026-05-06 22:07 | -31.48271 | -64.00243 | 2993 ft | 120 kts | 128° |
| 2026-05-06 22:07 | -31.48843 | -63.99522 | 2990 ft | 122 kts | 126° |
| 2026-05-06 22:07 | -31.49432 | -63.98813 | 2991 ft | 123 kts | 128° |
| 2026-05-06 22:08 | -31.50043 | -63.98100 | 2992 ft | 125 kts | 128° |
| 2026-05-06 22:08 | -31.50652 | -63.97375 | 2991 ft | 125 kts | 127° |
| 2026-05-06 22:08 | -31.51253 | -63.96644 | 2992 ft | 123 kts | 122° |
| 2026-05-06 22:08 | -31.51836 | -63.95900 | 2989 ft | 124 kts | 126° |
| 2026-05-06 22:09 | -31.52566 | -63.95360 | 2986 ft | 132 kts | 163° |
| 2026-05-06 22:09 | -31.53455 | -63.95096 | 2983 ft | 131 kts | 162° |
| 2026-05-06 22:09 | -31.54339 | -63.94823 | 2980 ft | 130 kts | 163° |
| 2026-05-06 22:09 | -31.55216 | -63.94555 | 2985 ft | 131 kts | 163° |
| 2026-05-06 22:10 | -31.56098 | -63.94285 | 2988 ft | 132 kts | 163° |
| 2026-05-06 22:10 | -31.56853 | -63.93754 | 2972 ft | 123 kts | 112° |
| 2026-05-06 22:10 | -31.56883 | -63.92896 | 2980 ft | 98 kts | 46° |
| 2026-05-06 22:10 | -31.56329 | -63.92696 | 2984 ft | 88 kts | 347° |
| 2026-05-06 22:11 | -31.55749 | -63.92874 | 2978 ft | 85 kts | 349° |
| 2026-05-06 22:11 | -31.55190 | -63.93127 | 2986 ft | 88 kts | 339° |
| 2026-05-06 22:11 | -31.54634 | -63.93430 | 2987 ft | 88 kts | 341° |
| 2026-05-06 22:11 | -31.54089 | -63.93784 | 2984 ft | 91 kts | 329° |
| 2026-05-06 22:12 | -31.53770 | -63.94098 | 2980 ft | 90 kts | 326° |
| 2026-05-06 22:12 | -31.53144 | -63.94749 | 2986 ft | 89 kts | 331° |
| 2026-05-06 22:12 | -31.52644 | -63.95154 | 2991 ft | 87 kts | 333° |
| 2026-05-06 22:12 | -31.52247 | -63.95718 | 2989 ft | 91 kts | 318° |
| 2026-05-06 22:13 | -31.51806 | -63.96254 | 2997 ft | 93 kts | 325° |
| 2026-05-06 22:13 | -31.51323 | -63.96755 | 2998 ft | 92 kts | 329° |
| 2026-05-06 22:13 | -31.50819 | -63.97220 | 2999 ft | 92 kts | 329° |
| 2026-05-06 22:13 | -31.50318 | -63.97683 | 3004 ft | 91 kts | 328° |
| 2026-05-06 22:14 | -31.49784 | -63.97969 | 3003 ft | 85 kts | 8° |
| 2026-05-06 22:14 | -31.49202 | -63.97744 | 3004 ft | 91 kts | 15° |
| 2026-05-06 22:14 | -31.48593 | -63.97517 | 3009 ft | 91 kts | 15° |
| 2026-05-06 22:14 | -31.47992 | -63.97299 | 3003 ft | 90 kts | 19° |
| 2026-05-06 22:15 | -31.47500 | -63.96815 | 2995 ft | 94 kts | 37° |
| 2026-05-06 22:15 | -31.47006 | -63.96324 | 2992 ft | 94 kts | 36° |
| 2026-05-06 22:15 | -31.46519 | -63.95815 | 2993 ft | 96 kts | 37° |
| 2026-05-06 22:15 | -31.46145 | -63.95162 | 2999 ft | 104 kts | 74° |
| 2026-05-06 22:16 | -31.46480 | -63.94377 | 2977 ft | 116 kts | 127° |
| 2026-05-06 22:16 | -31.46953 | -63.93617 | 2993 ft | 116 kts | 117° |
| 2026-05-06 22:16 | -31.47422 | -63.92848 | 2997 ft | 118 kts | 116° |
| 2026-05-06 22:16 | -31.47890 | -63.92045 | 2998 ft | 119 kts | 116° |
| 2026-05-06 22:17 | -31.48344 | -63.91241 | 3001 ft | 118 kts | 116° |
| 2026-05-06 22:17 | -31.48793 | -63.90440 | 3000 ft | 118 kts | 116° |
| 2026-05-06 22:17 | -31.49234 | -63.89640 | 2991 ft | 112 kts | 108° |
| 2026-05-06 22:17 | -31.49410 | -63.88794 | 2988 ft | 107 kts | 85° |
| 2026-05-06 22:18 | -31.49323 | -63.87986 | 2988 ft | 95 kts | 59° |
| 2026-05-06 22:18 | -31.48995 | -63.87326 | 2987 ft | 93 kts | 41° |
| 2026-05-06 22:18 | -31.48500 | -63.86842 | 2987 ft | 94 kts | 29° |
| 2026-05-06 22:18 | -31.47905 | -63.86550 | 2986 ft | 91 kts | 9° |
| 2026-05-06 22:19 | -31.47283 | -63.86566 | 2984 ft | 89 kts | 351° |
| 2026-05-06 22:19 | -31.46909 | -63.86758 | 2985 ft | 90 kts | 334° |
| 2026-05-06 22:19 | -31.46296 | -63.87484 | 2985 ft | 101 kts | 306° |
| 2026-05-06 22:19 | -31.46109 | -63.87990 | 2984 ft | 103 kts | 302° |
| 2026-05-06 22:20 | -31.45727 | -63.89026 | 2990 ft | 105 kts | 303° |
| 2026-05-06 22:20 | -31.45427 | -63.89791 | 2991 ft | 101 kts | 307° |
| 2026-05-06 22:20 | -31.45089 | -63.90512 | 2983 ft | 100 kts | 307° |
| 2026-05-06 22:20 | -31.44881 | -63.90993 | 2987 ft | 103 kts | 297° |
| 2026-05-06 22:21 | -31.45101 | -63.91824 | 2976 ft | 120 kts | 223° |
| 2026-05-06 22:21 | -31.46166 | -63.91846 | 2988 ft | 120 kts | 161° |
| 2026-05-06 22:21 | -31.46682 | -63.91619 | 2992 ft | 120 kts | 154° |
| 2026-05-06 22:21 | -31.47472 | -63.91257 | 2999 ft | 123 kts | 156° |
| 2026-05-06 22:22 | -31.48125 | -63.90676 | 2986 ft | 116 kts | 130° |
| 2026-05-06 22:22 | -31.48735 | -63.90033 | 2989 ft | 118 kts | 131° |
| 2026-05-06 22:22 | -31.49294 | -63.89360 | 2988 ft | 116 kts | 124° |
| 2026-05-06 22:22 | -31.49829 | -63.88649 | 2990 ft | 118 kts | 125° |
| 2026-05-06 22:23 | -31.50372 | -63.87925 | 2982 ft | 115 kts | 125° |
| 2026-05-06 22:23 | -31.50910 | -63.87216 | 2988 ft | 117 kts | 124° |
| 2026-05-06 22:23 | -31.51427 | -63.86473 | 2986 ft | 116 kts | 116° |
| 2026-05-06 22:23 | -31.51613 | -63.85625 | 2981 ft | 104 kts | 82° |
| 2026-05-06 22:24 | -31.51463 | -63.84827 | 2984 ft | 100 kts | 61° |
| 2026-05-06 22:24 | -31.51120 | -63.84150 | 2982 ft | 96 kts | 40° |
| 2026-05-06 22:24 | -31.50611 | -63.83652 | 2990 ft | 95 kts | 31° |
| 2026-05-06 22:24 | -31.49998 | -63.83408 | 2987 ft | 95 kts | 360° |
| 2026-05-06 22:25 | -31.49365 | -63.83660 | 2983 ft | 98 kts | 332° |
| 2026-05-06 22:25 | -31.48874 | -63.84197 | 2989 ft | 98 kts | 319° |
| 2026-05-06 22:25 | -31.48441 | -63.84831 | 2985 ft | 100 kts | 316° |
| 2026-05-06 22:25 | -31.48027 | -63.85487 | 2990 ft | 101 kts | 315° |
| 2026-05-06 22:26 | -31.47620 | -63.86133 | 2984 ft | 99 kts | 316° |
| 2026-05-06 22:26 | -31.47188 | -63.86749 | 2986 ft | 96 kts | 317° |
| 2026-05-06 22:26 | -31.46783 | -63.87382 | 2982 ft | 102 kts | 299° |
| 2026-05-06 22:26 | -31.46973 | -63.88223 | 2982 ft | 123 kts | 230° |
| 2026-05-06 22:27 | -31.47722 | -63.88728 | 2988 ft | 124 kts | 207° |
| 2026-05-06 22:27 | -31.48512 | -63.89115 | 2992 ft | 123 kts | 202° |
| 2026-05-06 22:27 | -31.49339 | -63.89126 | 2986 ft | 123 kts | 148° |
| 2026-05-06 22:27 | -31.49841 | -63.88391 | 2988 ft | 115 kts | 111° |
| 2026-05-06 22:28 | -31.50232 | -63.87567 | 2988 ft | 116 kts | 112° |
| 2026-05-06 22:28 | -31.50625 | -63.86742 | 2986 ft | 115 kts | 111° |
| 2026-05-06 22:28 | -31.51015 | -63.85924 | 2988 ft | 115 kts | 112° |
| 2026-05-06 22:28 | -31.51112 | -63.85092 | 2982 ft | 101 kts | 56° |
| 2026-05-06 22:29 | -31.50553 | -63.84804 | 2985 ft | 94 kts | 346° |
| 2026-05-06 22:29 | -31.50189 | -63.85456 | 2986 ft | 109 kts | 283° |
| 2026-05-06 22:29 | -31.50144 | -63.86342 | 2995 ft | 109 kts | 283° |
| 2026-05-06 22:29 | -31.49929 | -63.87148 | 3001 ft | 103 kts | 304° |
| 2026-05-06 22:30 | -31.49638 | -63.87908 | 2997 ft | 102 kts | 302° |
| 2026-05-06 22:30 | -31.49348 | -63.88666 | 2989 ft | 100 kts | 303° |
| 2026-05-06 22:30 | -31.49059 | -63.89419 | 2998 ft | 103 kts | 303° |
| 2026-05-06 22:30 | -31.48762 | -63.90184 | 2997 ft | 102 kts | 303° |
| 2026-05-06 22:31 | -31.48467 | -63.90934 | 2993 ft | 104 kts | 303° |
| 2026-05-06 22:31 | -31.48161 | -63.91707 | 2993 ft | 106 kts | 303° |
| 2026-05-06 22:31 | -31.47849 | -63.92488 | 2999 ft | 105 kts | 302° |
| 2026-05-06 22:31 | -31.47529 | -63.93271 | 3001 ft | 107 kts | 303° |
| 2026-05-06 22:32 | -31.47235 | -63.94082 | 2997 ft | 111 kts | 289° |
| 2026-05-06 22:32 | -31.47284 | -63.95005 | 2991 ft | 114 kts | 273° |
| 2026-05-06 22:32 | -31.47346 | -63.95922 | 2997 ft | 113 kts | 274° |
| 2026-05-06 22:32 | -31.47412 | -63.96839 | 2993 ft | 112 kts | 273° |
| 2026-05-06 22:33 | -31.47473 | -63.97756 | 2992 ft | 114 kts | 274° |
| 2026-05-06 22:33 | -31.47521 | -63.98682 | 2993 ft | 113 kts | 274° |
| 2026-05-06 22:33 | -31.47563 | -63.99606 | 3003 ft | 117 kts | 275° |
| 2026-05-06 22:33 | -31.47619 | -64.00560 | 2996 ft | 116 kts | 274° |
| 2026-05-06 22:34 | -31.47676 | -64.01485 | 2994 ft | 111 kts | 274° |
| 2026-05-06 22:34 | -31.47727 | -64.02403 | 3003 ft | 115 kts | 274° |
| 2026-05-06 22:34 | -31.47766 | -64.03337 | 3006 ft | 114 kts | 274° |
| 2026-05-06 22:34 | -31.47802 | -64.04271 | 3006 ft | 119 kts | 275° |
| 2026-05-06 22:35 | -31.47837 | -64.05221 | 2999 ft | 113 kts | 274° |
| 2026-05-06 22:35 | -31.47869 | -64.06126 | 2993 ft | 108 kts | 274° |
| 2026-05-06 22:35 | -31.47903 | -64.06999 | 2993 ft | 106 kts | 274° |
| 2026-05-06 22:35 | -31.47945 | -64.07831 | 2995 ft | 102 kts | 274° |
| 2026-05-06 22:36 | -31.47978 | -64.08644 | 2997 ft | 96 kts | 274° |
| 2026-05-06 22:36 | -31.48010 | -64.09439 | 2994 ft | 100 kts | 272° |
| 2026-05-06 22:36 | -31.48025 | -64.10267 | 3003 ft | 103 kts | 273° |
| 2026-05-06 22:36 | -31.48037 | -64.11109 | 3000 ft | 102 kts | 275° |
| 2026-05-06 22:37 | -31.48062 | -64.11904 | 3002 ft | 97 kts | 274° |
| 2026-05-06 22:37 | -31.48090 | -64.12713 | 2995 ft | 100 kts | 274° |
| 2026-05-06 22:37 | -31.48109 | -64.13525 | 2999 ft | 99 kts | 275° |
| 2026-05-06 22:37 | -31.47821 | -64.14121 | 3000 ft | 81 kts | 339° |
| 2026-05-06 22:38 | -31.47347 | -64.14563 | 2894 ft | 85 kts | 304° |
| 2026-05-06 22:38 | -31.47304 | -64.15219 | 2675 ft | 94 kts | 263° |
| 2026-05-06 22:38 | -31.47763 | -64.15695 | 2519 ft | 88 kts | 185° |
| 2026-05-06 22:38 | -31.48372 | -64.15591 | 2316 ft | 89 kts | 163° |
| 2026-05-06 22:39 | -31.48968 | -64.15391 | 2137 ft | 86 kts | 146° |
| 2026-05-06 22:39 | -31.49339 | -64.14903 | 1835 ft | 81 kts | 83° |
| 2026-05-06 22:39 | -31.49000 | -64.14392 | 1438 ft | 78 kts | 38° |
| 2026-05-06 22:39 | -31.48661 | -64.14066 | 1415 ft | 50 kts | 41° |
| 2026-05-06 22:40 | -31.48341 | -64.13726 | 1462 ft | 70 kts | 38° |
| 2026-05-06 22:40 | -31.47930 | -64.13485 | 1577 ft | 75 kts | 14° |
| 2026-05-06 22:40 | -31.47419 | -64.13355 | 1770 ft | 70 kts | 5° |
| 2026-05-06 22:40 | -31.46962 | -64.13661 | 1866 ft | 85 kts | 310° |
| 2026-05-06 22:41 | -31.47391 | -64.15043 | 2128 ft | 104 kts | 224° |
| 2026-05-06 22:41 | -31.48009 | -64.15534 | 2147 ft | 102 kts | 220° |
| 2026-05-06 22:41 | -31.48450 | -64.16182 | 2061 ft | 98 kts | 200° |
| 2026-05-06 22:42 | -31.49120 | -64.16280 | 2112 ft | 99 kts | 178° |
| 2026-05-06 22:42 | -31.49733 | -64.16060 | 2036 ft | 87 kts | 126° |
| 2026-05-06 22:42 | -31.49910 | -64.15466 | 1887 ft | 78 kts | 73° |
| 2026-05-06 22:42 | -31.49603 | -64.14963 | 1662 ft | 75 kts | 34° |
| 2026-05-06 22:43 | -31.49204 | -64.14587 | 1444 ft | 72 kts | 39° |
| 2026-05-06 22:43 | -31.48881 | -64.14274 | 1413 ft | 45 kts | 39° |
| 2026-05-06 22:43 | -31.48766 | -64.14275 | 1416 ft | 12 kts | 303° |